Nearby METAR Reports

 

EBAW - Antwerpen, Belgium
Distance from station: NW 22km
Updated: 2019-10-14 03:20
Clear
Clear
 Wind from WSW
Wind: WSW 9 km/h
Temperature: 14°C
Dew Point: 13°C
Humidity: 94%
Barometer: 1013 hPa
Summary: Clear
Visibility: greater than 10 km
2019/10/14 01:20 EBAW 140120Z AUTO 25005KT 220V280 CAVOK 14/13 Q1013
EBBR - Brussel, Belgium
Distance from station: SW 24km
Updated: 2019-10-14 03:20
Few Clouds
Few Clouds
 Wind from SW
Wind: SW 7 km/h
Temperature: 14°C
Dew Point: 12°C
Humidity: 88%
Barometer: 1013 hPa
Clouds: Few Clouds
Visibility: 10 km
Cloud details: Few Clouds 457 m
2019/10/14 01:20 EBBR 140120Z 23004KT 9999 FEW015 14/12 Q1013 NOSIG
 
EBDT - Schaffen, Belgium
Distance from station: ESE 26km
Updated: 2019-10-14 03:25
Mostly cloudy
Mostly cloudy
 Wind from S
Wind: S 6 km/h
Temperature: 15°C
Dew Point: 13°C
Humidity: 88%
Barometer: 1014 hPa
Clouds: Mostly cloudy
Visibility: 10 km
Cloud details: Few Clouds 457 m
Partly cloudy 549 m
Mostly cloudy 640 m
2019/10/14 01:25 EBDT 140125Z AUTO 19003KT 9999 FEW015/// SCT018/// BKN021/// 15/13 Q1014 WHT
EBBE - Beauvechain, Belgium
Distance from station: S 36km
Updated: 2019-10-14 03:25
Mostly cloudy
Mostly cloudy
 Wind from S
Wind: S 7 km/h
Temperature: 14°C
Dew Point: 12°C
Humidity: 88%
Barometer: 1014 hPa
Clouds: Mostly cloudy
Visibility: 10 km
Cloud details: Mostly cloudy 4877 m
2019/10/14 01:25 EBBE 140125Z AUTO 18004KT 9999 BKN160/// 14/12 Q1014 BLU
 
EHWO - Woensdrecht Rnla, Netherlands
Distance from station: NNW 50km
Updated: 2019-10-14 03:25
Mostly cloudy
Mostly cloudy
 Wind from WSW
Wind: WSW 9 km/h
Temperature: 14°C
Dew Point: 12°C
Humidity: 88%
Barometer: 1013 hPa
Clouds: Mostly cloudy
Visibility: 10 km
Cloud details: Few Clouds 2164 m
Mostly cloudy 2621 m
Mostly cloudy 2926 m
2019/10/14 01:25 EHWO 140125Z AUTO 25005KT 9999 FEW071 BKN086 BKN096 14/12 Q1013 BLU
EBBL - Kleine-Brogel, Belgium
Distance from station: ENE 54km
Updated: 2019-10-14 03:25
Mostly cloudy
Mostly cloudy
 Wind from SW
Wind: SW 6 km/h
Temperature: 15°C
Dew Point: 12°C
Humidity: 82%
Barometer: 1014 hPa
Clouds: Mostly cloudy
Visibility: 10 km
Cloud details: Few Clouds 579 m
Mostly cloudy 2713 m
Mostly cloudy 3353 m
2019/10/14 01:25 EBBL 140125Z AUTO 22003KT 9999 FEW019/// BKN089/// BKN110/// 15/12 Q1014 BLU
 
EHGR - Gilze-Rijen Rnla, Netherlands
Distance from station: NNE 57km
Updated: 2019-10-14 03:25
Overcast
Overcast
 Wind from WSW
Wind: WSW 7 km/h
Temperature: 14°C
Dew Point: 13°C
Humidity: 94%
Barometer: 1013 hPa
Clouds: Overcast
Visibility: 10 km
Cloud details: Few Clouds 457 m
Overcast 2896 m
2019/10/14 01:25 EHGR 140125Z AUTO 25004KT 9999 FEW015CB OVC095 14/13 Q1013 BLU
EHEH - Eindhoven Rnlafb, Netherlands
Distance from station: NE 63km
Updated: 2019-10-14 03:25
Overcast
Overcast
 Wind from SSW
Wind: SSW 9 km/h
Temperature: 14°C
Dew Point: 13°C
Humidity: 94%
Barometer: 1013 hPa
Clouds: Overcast
Visibility: 10 km
Cloud details: Few Clouds 457 m
Partly cloudy 2926 m
Overcast 3048 m
2019/10/14 01:25 EHEH 140125Z AUTO 21005KT 9999 FEW015CB SCT096 OVC100 14/13 Q1013 BLU
 
EBCI - Charleroi, Belgium
Distance from station: SSW 70km
Updated: 2019-10-14 03:20
Few Clouds
Few Clouds
 Wind from varies
Wind: varies 4 km/h
Temperature: 13°C
Dew Point: 12°C
Humidity: 94%
Barometer: 1014 hPa
Clouds: Few Clouds
Visibility: 10 km
Cloud details: Few Clouds 366 m
2019/10/14 01:20 EBCI 140120Z VRB02KT 9999 FEW012 13/12 Q1014 NOSIG
EBLG - Bierset, Belgium
Distance from station: SE 72km
Updated: 2019-10-14 03:20
Few Clouds
Few Clouds
 Wind from W
Wind: W 6 km/h
Temperature: 14°C
Dew Point: 12°C
Humidity: 88%
Barometer: 1014 hPa
Clouds: Few Clouds
Visibility: 10 km
Cloud details: Few Clouds 975 m
2019/10/14 01:20 EBLG 140120Z 26003KT 220V290 9999 FEW032 14/12 Q1014 NOSIG